Latest Weather Observations for Hamilton Island

IDQ60801

Issued at 3:02 pm EST Wednesday 29 March 2017 (issued every 30 minutes, with the page automatically refreshed every 10 minutes)

About weather observations | Map of weather stations | Latest weather observations for QLD | Other Formats
Station Details ID: 033106 Name: HAMILTON ISLAND AIRPORT Lat: -20.37 Lon: 148.95 Height: 58.66 m
Data from the previous 72 hours. | See also: Recent months at Hamilton Island
Date/Time
EST
Temp
°C
App
Temp
°C
Dew
Point
°C
Rel
Hum
%
Delta-T
°C
Wind Press
QNH
hPa
Press
MSL
hPa
Rain since
9am
mm
Dir  Spd
km/h
Gust
km/h
Spd
kts
Gust
kts
29/03:00pm - - - - - - 65 82 35 44 1000.4 1000.1 4.6
29/02:30pm - - - - - - 69 89 37 48 1000.8 - 4.6
29/02:00pm - - - - - - 63 85 34 46 1001.1 - 4.6
29/01:30pm - - - - - - 70 96 38 52 1000.5 - 4.6
29/01:00pm - - - - - - 63 87 34 47 1001.4 - 4.6
29/12:30pm - - - - - - 65 87 35 47 1001.1 - 4.6
29/12:00pm - - - - - - 67 93 36 50 1001.4 1001.1 4.6
29/11:30am - - - - - - 70 91 38 49 1001.8 - 4.6
29/11:00am - - - - - - 61 85 33 46 1002.8 - 4.6
29/10:59am - - - - - - 59 85 32 46 1002.6 - 4.6
29/10:56am - - - - - - 59 85 32 46 1002.2 - 4.6
29/10:46am - - - - - - 57 87 31 47 1002.8 - 4.4
29/10:42am - - - - - - 57 82 31 44 1002.7 - 4.2
29/10:40am - - - - - - 56 82 30 44 1002.3 - 4.2
29/10:30am - - - - - - 65 95 35 51 1002.9 - 3.6
29/10:26am - - - - - - 67 95 36 51 1003.0 - 3.6
29/10:15am - - - - - - 44 89 24 48 1003.6 - 3.6
29/10:14am - - - - - - 44 89 24 48 1003.4 - 3.6
29/10:00am - - - - - - 67 95 36 51 1002.3 - 3.6
29/09:54am - - - - - - 69 89 37 48 1002.8 - 3.6
29/09:52am - - - - - - 74 89 40 48 1002.0 - 3.6
29/09:30am - - - - - - 52 89 28 48 1002.8 - 2.4
29/09:13am - - - - - - 43 82 23 44 1003.0 - 0.6
29/08:56am - - - - - - 41 61 22 33 1002.7 - 136.8
29/08:30am - - - - - - 46 89 25 48 1002.9 - 136.8
29/08:21am - - - - - - 43 89 23 48 1002.9 - 136.8
29/08:13am - - - - - - 32 74 17 40 1002.7 - 136.8
29/08:06am - - - - - - 32 52 17 28 1002.7 - 136.8
29/08:03am - - - - - - 30 50 16 27 1002.4 - 136.8
29/08:00am - - - - - - 33 67 18 36 1002.5 - 136.8
29/07:53am - - - - - - 35 67 19 36 1001.9 - 136.8
29/07:28am - - - - - - 41 72 22 39 1002.0 - 136.8
29/07:00am - - - - - - 39 72 21 39 1001.2 - 136.8
29/06:30am - - - - - - 50 91 27 49 1000.4 - 136.8
29/06:00am - - - - - - 43 80 23 43 999.8 999.5 136.6
29/05:30am - - - - - - 44 70 24 38 999.2 - 136.6
29/05:19am - - - - - - 44 76 24 41 999.2 - 136.6
29/05:00am - - - - - - 46 74 25 40 998.3 - 136.4
29/04:58am - - - - - - 46 83 25 45 998.7 - 135.8
29/04:30am - - - - - - 43 80 23 43 998.4 - 135.8
29/04:23am - - - - - - 54 83 29 45 998.2 - 135.8
29/04:19am - - - - - - 63 83 34 45 998.1 - 135.8
29/04:18am - - - - - - 67 83 36 45 997.9 - 135.8
29/04:05am - - - - - - 44 76 24 41 997.4 - 135.6
29/04:00am - - - - - - 39 80 21 43 998.1 - 135.6
29/03:55am - - - - - - 41 80 22 43 997.8 - 135.4
29/03:42am - - - - - - 35 61 19 33 997.8 - 134.0
29/03:31am - - - - - - 41 72 22 39 997.8 - 133.6
29/03:30am - - - - - - 41 72 22 39 997.8 - 133.6
29/03:05am - - - - - - 39 70 21 38 997.9 - 133.2
29/03:00am - - - - - - 33 65 18 35 997.8 997.4 133.2
29/02:58am - - - - - - 37 67 20 36 997.5 - 133.2
29/02:30am - - - - - - 54 82 29 44 997.7 - 127.2
29/02:29am - - - - - - 54 82 29 44 997.8 - 127.2
29/02:27am - - - - - - 56 82 30 44 997.2 - 126.8
29/02:00am - - - - - - 44 69 24 37 997.5 - 122.0
29/01:56am - - - - - - 46 69 25 37 997.2 - 120.0
29/01:45am - - - - - - 41 76 22 41 996.5 - 115.0
29/01:35am - - - - - - 44 70 24 38 997.3 - 114.0
29/01:28am - - - - - - 52 85 28 46 997.4 - 111.8
29/01:25am - - - - - - 56 85 30 46 997.1 - 111.6
29/01:12am - - - - - - 46 76 25 41 997.2 - 111.6
29/01:00am - - - - - - 44 82 24 44 997.1 - 110.4
29/12:46am - - - - - - 33 76 18 41 997.3 - 109.2
29/12:30am - - - - - - 56 96 30 52 997.1 - 109.2
29/12:18am - - - - - - 57 98 31 53 996.3 - 107.4
29/12:00am - - - - - - 54 82 29 44 997.0 996.6 102.2
 
Date/Time
EST
Temp
°C
App
Temp
°C
Dew
Point
°C
Rel
Hum
%
Delta-T
°C
Wind Press
QNH
hPa
Press
MSL
hPa
Rain since
9am
mm
Dir  Spd
km/h
Gust
km/h
Spd
kts
Gust
kts
28/11:59pm - - - - - - 52 82 28 44 996.9 - 101.0
28/11:53pm - - - - - - 50 82 27 44 996.6 - 100.8
28/11:31pm - - - - - - 61 95 33 51 996.7 - 100.6
28/11:30pm - - - - - - 63 95 34 51 995.9 - 100.6
28/11:23pm - - - - - - 70 102 38 55 996.2 - 100.6
28/11:00pm - - - - - - 65 87 35 47 996.4 - 100.4
28/10:45pm - - - - - - 59 83 32 45 996.3 - 100.4
28/09:30pm - - - - - - 69 95 37 51 994.8 - 99.2
28/09:00pm - - - - - - 76 120 41 65 992.8 992.4 98.8
28/08:54pm - - - - - - 76 120 41 65 994.1 - 98.6
28/08:36pm - - - - - - 76 106 41 57 992.6 - 98.4
28/08:30pm - - - - - - 74 100 40 54 992.6 - 98.4
28/08:00pm - - - - - - 74 100 40 54 992.2 - 97.0
28/07:30pm - - - - - - 78 117 42 63 990.9 - 96.2
28/07:13pm - - - - - - 78 115 42 62 990.9 - 95.2
28/07:00pm - - - - - - 74 120 40 65 988.4 - 95.0
28/06:30pm - - - - - - 72 111 39 60 988.2 - 91.4
28/06:00pm - - - - - - 67 128 36 69 987.1 986.7 87.8
28/05:30pm - - - - - - 70 132 38 71 986.3 - 83.4
28/05:13pm - - - - - - 56 117 30 63 986.1 - 80.8
28/05:00pm - - - - - - 76 132 41 71 984.5 - 77.6
28/04:56pm - - - - - - 82 132 44 71 984.5 - 76.8
28/04:30pm - - - - - SW 59 145 32 78 983.8 - 68.8
28/04:28pm - - - - - WNW 80 145 43 78 983.7 - 68.4
28/04:26pm - - - - - S 87 143 47 77 982.8 - 67.4
28/04:00pm - - - - - WSW 78 159 42 86 982.1 - 57.2
28/03:39pm - - - - - SW 83 159 45 86 981.2 - 47.4
28/03:33pm - - - - - SW 91 159 49 86 979.2 - 45.0
28/03:30pm - - - - - WSW 91 128 49 69 979.7 - 43.6
28/03:00pm - - - - - WSW 93 148 50 80 - - 33.8
28/02:56pm - - - - - WSW 95 141 51 76 978.6 - 32.6
28/02:54pm - - - - - WSW 96 148 52 80 976.6 - 32.0
28/02:52pm - - - - - WSW 98 148 53 80 978.6 - 31.2
28/02:44pm - - - - - WSW 104 178 56 96 976.1 - 29.4
28/02:41pm - - - - - WSW 106 178 57 96 974.0 - 28.8
28/02:03pm - - - - - WSW 117 211 63 114 - - 25.2
28/02:02pm - - - - - WSW 117 176 63 95 971.5 - 25.2
28/02:00pm - - - - - WSW 120 176 65 95 974.4 - 25.0
28/01:52pm - - - - - WSW 132 209 71 113 972.6 - 24.0
28/01:40pm - - - - - WSW 141 196 76 106 970.4 - 23.0
28/01:39pm - - - - - WSW 143 196 77 106 973.6 - 23.0
28/01:35pm - - - - - WSW 137 196 74 106 970.7 - 22.6
28/01:33pm - - - - - WSW 133 191 72 103 967.7 - 22.6
28/01:30pm - - - - - WSW 130 182 70 98 970.1 - 22.4
28/01:20pm - - - - - WSW 122 187 66 101 - - 22.0
28/01:05pm - - - - - W 145 202 78 109 - - 21.4
28/01:01pm - - - - - SW 152 209 82 113 - - 21.4
28/01:00pm - - - - - W 156 209 84 113 - - 21.4
28/12:58pm - - - - - WNW 150 209 81 113 966.9 - 21.2
28/12:57pm - - - - - S 146 209 79 113 965.7 - 21.2
28/12:53pm - - - - - SSW 161 209 87 113 - - 21.0
28/12:52pm - - - - - NNW 156 195 84 105 - - 21.0
28/12:40pm - - - - - WSW 152 195 82 105 965.3 - 20.6
28/12:35pm - - - - - WSW 148 224 80 121 963.0 - 20.4
28/12:31pm - - - - - W 156 224 84 121 965.0 - 20.4
28/12:30pm - - - - - SW 167 224 90 121 964.5 - 20.4
28/12:28pm - - - - - WSW 158 224 85 121 - - 20.4
28/12:26pm - - - - - W 163 206 88 111 - - 20.2
28/12:18pm - - - - - W 137 206 74 111 965.1 - 20.2
28/12:14pm - - - - - W 139 213 75 115 967.1 - 20.0
28/12:11pm - - - - - WSW 146 213 79 115 965.1 - 20.0
28/12:08pm - - - - - WSW 170 213 92 115 - - 20.0
28/12:00pm - - - - - WSW 150 217 81 117 964.0 963.6 20.0
28/11:55am - - - - - WSW 139 217 75 117 - - 19.8
28/11:53am 33.0 11.1 30.3 86 2.0 W 169 217 91 117 - - 19.8
28/11:51am 31.1 16.4 31.1 100 0.0 W 135 206 73 111 964.6 - 19.8
28/11:47am 31.1 11.8 31.1 100 0.0 W 159 209 86 113 - - 19.6
28/11:33am 33.6 20.4 33.6 100 0.0 W 139 226 75 122 - - 19.4
28/11:30am 34.0 20.8 34.0 100 0.0 W 141 196 76 106 - - 19.2
28/11:25am 34.2 21.2 34.2 100 0.0 W 141 196 76 106 967.0 - 19.0
28/11:18am 34.2 24.4 34.2 100 0.0 W 124 178 67 96 966.4 - 19.0
28/11:09am 34.9 25.4 34.9 100 0.0 WNW 126 200 68 108 968.5 - 18.6
28/11:03am 35.1 24.5 35.1 100 0.0 WNW 133 213 72 115 966.0 - 18.2
28/11:00am 35.3 17.1 35.3 100 0.0 W 174 213 94 115 964.5 - 18.2
28/10:56am 37.0 19.9 37.0 100 0.0 W 178 222 96 120 962.0 - 18.2
28/10:55am 36.4 18.6 36.4 100 0.0 W 178 222 96 120 964.0 - 18.2
28/10:49am 36.3 17.7 36.3 100 0.0 WNW 182 222 98 120 961.6 - 18.2
28/10:30am 36.2 17.3 36.2 100 0.0 WNW 183 263 99 142 966.3 - 16.0
28/10:28am 36.6 18.1 36.6 100 0.0 WNW 183 263 99 142 965.7 - 15.8
28/10:25am 36.9 19.3 36.9 100 0.0 NW 180 263 97 142 968.1 - 15.4
28/10:23am 35.9 17.6 35.9 100 0.0 NW 178 241 96 130 967.8 - 15.2
28/10:08am 35.3 17.9 35.3 100 0.0 WNW 170 219 92 118 967.4 - 12.8
28/10:04am 35.5 17.9 35.5 100 0.0 WNW 172 215 93 116 971.7 - 12.2
28/10:00am 34.5 15.5 34.5 100 0.0 WNW 174 215 94 116 969.5 - 11.6
28/09:42am 35.4 16.9 35.4 100 0.0 NW 176 224 95 121 969.6 - 7.2
28/09:41am 35.3 15.4 35.3 100 0.0 ESE 183 224 99 121 970.5 - 7.0
28/09:30am 35.9 15.1 35.9 100 0.0 ESE 191 232 103 125 967.1 - 4.6
28/09:00am 32.1 10.1 32.1 100 0.0 ESE 178 213 96 115 - - 105.6
28/08:56am 32.1 10.1 32.1 100 0.0 ESE 178 208 96 112 972.4 - 105.0
28/08:48am 31.5 10.1 31.5 100 0.0 ESE 172 219 93 118 974.4 - 103.8
28/08:46am 31.1 9.7 31.1 100 0.0 ESE 170 219 92 118 972.3 - 103.4
28/08:33am 30.7 8.6 30.7 100 0.0 ESE 172 195 93 105 973.7 - 101.4
28/08:30am 30.2 12.6 30.2 100 0.0 ESE 146 215 79 116 - - 100.8
28/08:27am 30.9 13.1 30.9 100 0.0 ESE 150 215 81 116 975.6 - 100.4
28/08:15am 29.1 4.2 29.1 100 0.0 ESE 180 222 97 120 975.0 - 99.4
28/08:12am 26.1 3.1 26.1 100 0.0 ESE 159 222 86 120 974.7 - 99.0
28/08:00am 26.3 3.4 26.3 100 0.0 SE 159 193 86 104 975.4 - 97.8
28/07:42am 26.3 5.5 26.3 100 0.0 ESE 148 191 80 103 976.9 - 93.6
28/07:38am 26.9 6.9 26.9 100 0.0 SE 146 174 79 94 979.7 - 93.0
28/07:37am 26.8 6.3 26.8 100 0.0 SE 148 174 80 94 976.9 - 93.0
28/07:30am 26.9 5.3 26.9 100 0.0 SE 154 195 83 105 979.0 - 92.2
28/07:20am 26.6 4.1 26.6 100 0.0 SE 158 191 85 103 976.8 - 91.4
28/07:17am 26.7 4.2 26.7 100 0.0 SE 158 191 85 103 979.1 - 91.2
28/07:14am 26.7 4.2 26.7 100 0.0 SE 158 191 85 103 977.1 - 90.8
28/07:00am 26.7 5.4 26.7 100 0.0 SE 152 196 82 106 979.5 - 89.2
28/06:52am 26.8 6.9 26.8 100 0.0 SE 145 196 78 106 979.8 - 88.4
28/06:30am 26.6 7.3 26.6 100 0.0 SE 141 174 76 94 - - 87.0
28/06:00am 26.9 7.1 26.9 100 0.0 SE 145 176 78 95 980.3 979.9 84.4
28/05:45am 28.5 11.7 28.5 100 0.0 SE 135 178 73 96 980.5 - 83.2
28/05:30am 27.9 11.0 27.9 100 0.0 SE 133 158 72 85 981.8 - 82.2
28/05:00am 27.6 9.0 27.6 100 0.0 SE 141 189 76 102 981.9 - 79.6
28/04:30am 28.0 9.7 28.0 100 0.0 SE 141 187 76 101 981.4 - 76.8
28/04:21am 27.8 9.0 27.8 100 0.0 SE 143 187 77 101 981.6 - 76.4
28/04:00am 27.4 10.2 27.4 100 0.0 SE 133 161 72 87 981.7 - 76.0
28/03:30am 28.0 10.1 28.0 100 0.0 SE 139 172 75 93 982.0 - 73.6
28/03:07am 27.7 10.7 27.7 100 0.0 SE 133 167 72 90 981.8 - 73.2
28/03:00am 27.2 9.8 27.2 100 0.0 SE 133 169 72 91 984.0 983.6 73.2
28/02:30am 26.6 8.1 26.6 100 0.0 SE 137 182 74 98 983.6 - 72.0
28/02:26am 26.4 8.5 26.4 100 0.0 SE 133 167 72 90 982.5 - 71.6
28/02:00am 26.2 8.3 26.2 100 0.0 SE 132 172 71 93 984.9 - 69.6
28/01:49am 25.8 8.4 25.8 100 0.0 SSE 128 159 69 86 984.0 - 68.6
28/01:30am 25.8 9.2 25.8 100 0.0 SE 124 152 67 82 986.6 - 67.0
28/01:00am 25.4 8.5 25.4 100 0.0 SE 124 156 67 84 987.8 - 64.6
28/12:30am 25.4 10.3 25.4 100 0.0 SE 115 148 62 80 989.4 - 61.8
28/12:00am 25.5 10.8 25.5 100 0.0 SE 113 137 61 74 989.8 989.4 58.8
 
Date/Time
EST
Temp
°C
App
Temp
°C
Dew
Point
°C
Rel
Hum
%
Delta-T
°C
Wind Press
QNH
hPa
Press
MSL
hPa
Rain since
9am
mm
Dir  Spd
km/h
Gust
km/h
Spd
kts
Gust
kts
27/11:30pm 25.4 11.4 25.4 100 0.0 SE 109 141 59 76 991.8 - 52.6
27/11:15pm 25.6 13.8 25.6 100 0.0 SE 98 132 53 71 992.6 - 51.2
27/11:00pm 26.0 12.0 26.0 100 0.0 E 111 132 60 71 993.1 - 50.6
27/10:59pm 25.9 10.7 25.9 100 0.0 E 117 132 63 71 992.5 - 50.6
27/10:43pm 25.6 14.8 25.6 100 0.0 E 93 115 50 62 993.5 - 49.8
27/10:36pm 25.6 14.2 25.6 100 0.0 NE 96 120 52 65 994.0 - 49.2
27/10:34pm 25.6 14.2 25.6 100 0.0 NE 96 124 52 67 993.9 - 49.0
27/10:30pm 25.6 13.1 25.6 100 0.0 E 102 124 55 67 993.8 - 48.6
27/10:28pm 25.1 11.5 25.1 100 0.0 E 106 124 57 67 993.8 - 48.4
27/10:27pm 25.1 11.3 25.1 100 0.0 ESE 107 124 58 67 994.0 - 48.4
27/10:23pm 25.7 14.0 25.7 100 0.0 NE 98 130 53 70 994.0 - 48.0
27/10:18pm 25.7 14.4 25.7 100 0.0 NE 96 130 52 70 994.5 - 47.6
27/10:16pm 25.6 13.1 25.6 100 0.0 NNE 102 130 55 70 994.4 - 47.4
27/10:00pm 26.2 13.3 26.2 100 0.0 ENE 106 128 57 69 994.0 - 46.6
27/09:59pm 26.3 13.3 26.3 100 0.0 ENE 107 128 58 69 994.2 - 46.6
27/09:57pm 26.3 12.9 26.3 100 0.0 NNE 109 128 59 69 994.5 - 46.6
27/09:56pm 26.4 12.7 26.4 100 0.0 NNE 111 128 60 69 994.4 - 46.6
27/09:52pm 26.2 14.8 26.2 100 0.0 ENE 98 122 53 66 994.6 - 46.6
27/09:46pm 25.8 13.0 25.8 100 0.0 ENE 104 124 56 67 994.6 - 46.4
27/09:40pm 25.6 13.1 25.6 100 0.0 ESE 102 124 55 67 994.7 - 46.4
27/09:39pm 25.6 13.1 25.6 100 0.0 ESE 102 124 55 67 994.9 - 46.2
27/09:30pm 26.1 14.3 26.1 100 0.0 ENE 100 120 54 65 994.7 - 45.4
27/09:11pm 26.3 13.8 26.3 100 0.0 E 104 126 56 68 994.8 - 45.0
27/09:10pm 26.2 13.7 26.2 100 0.0 E 104 126 56 68 994.9 - 45.0
27/09:08pm 26.5 13.6 26.5 100 0.0 ESE 107 126 58 68 994.9 - 44.8
27/09:07pm 26.3 12.9 26.3 100 0.0 SE 109 126 59 68 995.3 - 44.8
27/09:02pm 25.8 13.0 25.8 100 0.0 NE 104 122 56 66 995.1 - 44.8
27/09:00pm 26.0 13.7 26.0 100 0.0 NE 102 119 55 64 995.0 994.6 44.8
27/08:43pm 25.7 15.7 25.7 100 0.0 NE 89 115 48 62 995.3 - 44.4
27/08:42pm 25.9 16.8 25.9 100 0.0 NE 85 115 46 62 995.6 - 44.2
27/08:35pm 25.5 15.4 25.5 100 0.0 E 89 119 48 64 995.1 - 44.2
27/08:34pm 25.8 16.6 25.8 100 0.0 E 85 119 46 64 995.8 - 44.0
27/08:32pm 25.7 14.6 25.7 100 0.0 NNE 95 119 51 64 995.6 - 44.0
27/08:30pm 25.5 13.7 25.5 100 0.0 ENE 98 119 53 64 995.5 - 44.0
27/08:20pm 25.5 14.2 25.5 100 0.0 E 95 117 51 63 995.6 - 43.6
27/08:17pm 25.7 15.3 25.7 100 0.0 ESE 91 117 49 63 995.6 - 43.2
27/08:12pm 25.7 14.9 25.7 100 0.0 ENE 93 115 50 62 995.8 - 42.8
27/08:08pm 25.4 14.8 25.4 100 0.0 ESE 91 119 49 64 995.3 - 42.4
27/08:04pm 25.7 17.0 25.7 100 0.0 ENE 82 119 44 64 995.7 - 42.0
27/08:00pm 25.2 14.5 25.2 100 0.0 SE 91 119 49 64 995.6 - 41.8
27/07:59pm 25.5 16.5 25.5 100 0.0 SE 83 109 45 59 995.6 - 41.6
27/07:49pm 25.3 15.7 25.1 99 0.1 E 85 111 46 60 995.6 - 39.8
27/07:41pm 25.3 14.9 25.1 99 0.1 ENE 89 111 48 60 995.5 - 39.2
27/07:38pm 25.5 15.2 25.3 99 0.1 NNE 89 113 48 61 996.0 - 38.6
27/07:36pm 25.6 15.8 25.4 99 0.1 E 87 113 47 61 995.9 - 38.2
27/07:33pm 25.7 14.8 25.5 99 0.1 NE 93 113 50 61 995.9 - 38.0
27/07:30pm 25.3 13.6 25.1 99 0.1 NE 96 115 52 62 995.8 - 38.0
27/07:27pm 25.4 14.7 25.2 99 0.1 E 91 115 49 62 996.1 - 37.8
27/07:18pm 25.5 16.4 25.3 99 0.1 ESE 83 106 45 57 995.8 - 37.2
27/07:16pm 25.2 15.9 25.0 99 0.1 ESE 83 106 45 57 995.9 - 37.0
27/07:04pm 25.4 14.2 25.1 98 0.2 ENE 93 111 50 60 996.3 - 36.2
27/07:03pm 25.1 12.8 24.8 98 0.2 E 98 111 53 60 996.3 - 35.8
27/07:01pm 25.2 13.4 24.9 98 0.2 NNE 96 111 52 60 996.1 - 35.4
27/07:00pm 25.2 13.5 24.9 98 0.2 ENE 95 109 51 59 996.2 - 35.4
27/06:53pm 25.3 14.5 25.0 98 0.2 ENE 91 109 49 59 995.9 - 34.0
27/06:46pm 25.5 15.9 25.2 98 0.2 ENE 85 109 46 59 996.0 - 32.6
27/06:41pm 25.7 15.5 25.4 98 0.2 ESE 89 109 48 59 996.0 - 31.6
27/06:39pm 25.5 14.4 25.2 98 0.2 ESE 93 107 50 58 995.6 - 31.2
27/06:30pm 25.8 16.9 25.3 97 0.4 ENE 82 104 44 56 996.1 - 28.8
27/06:24pm 25.6 16.0 25.1 97 0.3 ENE 85 104 46 56 996.0 - 28.2
27/06:21pm 25.7 15.4 25.2 97 0.3 ENE 89 109 48 59 996.0 - 28.0
27/06:16pm 25.6 17.7 25.1 97 0.3 SSE 76 109 41 59 996.3 - 27.6
27/06:03pm 25.7 16.1 25.2 97 0.3 ESE 85 104 46 56 996.1 - 27.2
27/06:00pm 25.6 15.6 25.1 97 0.4 E 87 104 47 56 996.0 995.6 27.0
27/05:50pm 25.4 16.0 24.9 97 0.3 E 83 109 45 59 996.0 - 26.4
27/05:47pm 25.4 16.0 24.9 97 0.3 E 83 111 45 60 996.1 - 26.2
27/05:44pm 25.1 13.9 24.4 96 0.5 NE 91 111 49 60 995.9 - 25.8
27/05:38pm 25.5 13.7 24.6 95 0.6 ENE 95 111 51 60 995.5 - 24.8
27/05:35pm 25.7 15.9 24.8 95 0.6 ESE 85 107 46 58 996.0 - 24.4
27/05:33pm 26.1 16.2 25.2 95 0.6 ENE 87 113 47 61 996.2 - 24.4
27/05:30pm 26.1 15.4 25.2 95 0.6 NNE 91 113 49 61 996.0 - 24.2
27/05:26pm 25.8 14.6 25.1 96 0.5 E 93 113 50 61 996.1 - 24.0
27/05:24pm 25.8 14.3 25.1 96 0.5 E 95 111 51 60 996.1 - 24.0
27/05:20pm 25.9 17.9 25.0 95 0.6 S 76 96 41 52 995.7 - 23.8
27/05:17pm 26.2 18.8 25.3 95 0.6 SSE 74 95 40 51 996.1 - 23.6
27/05:15pm 26.3 17.4 25.4 95 0.6 SE 82 95 44 51 996.1 - 23.6
27/05:14pm 26.5 18.3 25.8 96 0.5 E 80 95 43 51 996.2 - 23.6
27/05:11pm 26.5 19.4 25.8 96 0.5 SSE 74 93 40 50 995.9 - 23.6
27/05:05pm 25.8 18.0 25.3 97 0.4 SE 76 98 41 53 996.3 - 23.6
27/05:00pm 25.7 16.1 25.2 97 0.3 ENE 85 109 46 59 996.3 - 23.6
27/04:49pm 25.7 16.7 25.2 97 0.3 ENE 82 109 44 59 996.2 - 23.2
27/04:44pm 25.4 16.0 24.9 97 0.3 E 83 109 45 59 996.0 - 22.8
27/04:41pm 25.2 15.6 24.5 96 0.5 SSE 83 109 45 59 995.8 - 22.6
27/04:36pm 25.3 15.6 24.4 95 0.6 ESE 83 106 45 57 995.9 - 21.6
27/04:35pm 25.6 15.7 24.7 95 0.6 ESE 85 106 46 57 996.1 - 21.4
27/04:30pm 25.4 13.5 24.5 95 0.6 NE 95 106 51 57 996.4 - 21.0
27/04:29pm 25.4 13.5 24.5 95 0.6 NE 95 106 51 57 996.0 - 21.0
27/04:28pm 25.3 14.5 24.4 95 0.6 E 89 106 48 57 996.0 - 21.0
27/04:27pm 25.4 15.4 24.5 95 0.6 SE 85 104 46 56 996.0 - 20.8
27/04:10pm 25.4 15.0 24.4 94 0.7 ENE 87 106 47 57 996.4 - 20.2
27/04:08pm 26.1 14.8 24.9 93 0.8 NE 93 106 50 57 996.1 - 19.6
27/04:06pm 26.1 18.6 25.1 94 0.7 SE 74 98 40 53 996.2 - 19.4
27/04:05pm 26.1 17.4 25.1 94 0.7 ENE 80 98 43 53 996.3 - 19.4
27/04:00pm 26.1 16.7 24.9 93 0.8 ENE 83 107 45 58 996.5 - 19.2
27/03:30pm 26.3 16.5 24.9 92 1.0 ENE 85 106 46 57 996.7 - 18.6
27/03:22pm 25.6 16.1 24.4 93 0.8 E 82 102 44 55 996.5 - 18.4
27/03:20pm 25.2 15.8 24.0 93 0.8 E 80 100 43 54 996.8 - 18.2
27/03:17pm 25.6 15.7 24.0 91 1.1 NE 83 100 45 54 996.8 - 17.8
27/03:10pm 26.5 18.1 24.9 91 1.1 E 78 102 42 55 996.7 - 17.6
27/03:08pm 26.4 17.0 24.8 91 1.1 NE 83 102 45 55 996.9 - 17.6
27/03:00pm 26.2 16.3 24.6 91 1.1 E 85 104 46 56 996.7 996.3 17.6
27/02:57pm 26.4 16.6 24.8 91 1.1 E 85 104 46 56 996.7 - 17.4
27/02:50pm 26.5 17.0 24.7 90 1.3 E 83 102 45 55 996.9 - 17.4
27/02:47pm 26.5 17.0 24.7 90 1.3 E 83 98 45 53 996.7 - 17.4
27/02:35pm 26.2 17.0 25.2 94 0.7 ESE 83 106 45 57 996.8 - 17.4
27/02:30pm 25.8 16.4 24.9 95 0.6 ESE 83 98 45 53 996.8 - 17.4
27/02:10pm 25.4 15.1 24.7 96 0.5 SE 87 106 47 57 997.3 - 16.8
27/02:09pm 25.4 14.8 24.7 96 0.5 SE 89 106 48 57 997.2 - 16.4
27/02:01pm 25.2 14.4 24.5 96 0.5 E 89 107 48 58 997.5 - 16.2
27/02:00pm 25.1 13.9 24.4 96 0.5 E 91 107 49 58 997.5 - 16.2
27/01:58pm 24.9 12.6 24.2 96 0.5 E 96 107 52 58 997.3 - 15.8
27/01:53pm 25.7 18.4 24.8 95 0.6 ESE 72 95 39 51 997.5 - 14.8
27/01:51pm 25.5 17.7 24.6 95 0.6 NE 74 95 40 51 997.7 - 14.4
27/01:50pm 25.4 17.0 24.4 94 0.7 E 76 95 41 51 997.9 - 14.2
27/01:43pm 26.4 19.6 24.8 91 1.1 E 69 95 37 51 997.6 - 13.6
27/01:41pm 26.5 20.4 24.7 90 1.3 E 65 95 35 51 997.9 - 13.6
27/01:39pm 26.4 18.2 24.6 90 1.3 NE 76 95 41 51 997.9 - 13.6
27/01:37pm 26.5 17.1 24.5 89 1.4 NE 82 96 44 52 998.1 - 13.6
27/01:30pm 26.8 19.0 24.6 88 1.5 E 74 96 40 52 998.2 - 13.6
27/01:28pm 27.0 20.0 24.8 88 1.5 E 70 96 38 52 997.9 - 13.6
27/01:20pm 26.5 20.8 24.7 90 1.3 ESE 63 95 34 51 998.8 - 13.6
27/01:17pm 27.0 18.9 24.8 88 1.5 ENE 76 95 41 51 998.2 - 13.6
27/01:16pm 27.2 19.3 25.2 89 1.4 NE 76 89 41 48 998.6 - 13.6
27/01:14pm 27.0 20.6 25.4 91 1.1 E 69 89 37 48 998.4 - 13.6
27/01:12pm 26.7 21.2 25.1 91 1.1 SSE 63 89 34 48 998.8 - 13.6
27/01:06pm 26.9 19.1 25.3 91 1.1 E 76 95 41 51 998.6 - 13.6
27/01:00pm 26.8 19.3 25.8 94 0.7 E 76 95 41 51 998.7 - 13.6
27/12:59pm 26.7 19.6 25.8 95 0.6 ENE 74 95 40 51 998.9 - 13.6
27/12:56pm 26.7 19.7 26.0 96 0.5 ENE 74 93 40 50 999.0 - 13.4
27/12:53pm 26.6 19.3 26.1 97 0.4 ESE 76 93 41 50 999.1 - 13.4
27/12:49pm 26.5 19.2 26.0 97 0.4 ESE 76 89 41 48 999.1 - 13.4
27/12:47pm 26.6 19.3 26.1 97 0.4 ENE 76 87 41 47 999.2 - 13.4
27/12:44pm 26.5 19.5 26.0 97 0.4 NE 74 85 40 46 999.6 - 13.4
27/12:37pm 26.6 19.8 26.3 98 0.2 ESE 74 98 40 53 999.8 - 13.2
27/12:30pm 26.5 19.3 26.2 98 0.2 ENE 76 98 41 53 999.9 - 13.2
27/12:28pm 26.3 19.3 26.0 98 0.2 NE 74 98 40 53 1000.0 - 13.2
27/12:25pm 26.4 19.5 26.1 98 0.2 E 74 98 40 53 999.9 - 13.2
27/12:20pm 26.3 18.2 26.0 98 0.2 NE 80 98 43 53 999.9 - 13.2
27/12:10pm 26.1 19.4 25.8 98 0.2 E 72 102 39 55 999.8 - 12.6
27/12:00pm 26.2 20.9 25.9 98 0.2 E 65 83 35 45 1000.0 999.7 12.6
27/11:51am 25.9 19.4 25.6 98 0.2 E 70 89 38 48 1000.3 - 12.6
27/11:45am 25.8 19.5 25.5 98 0.2 ENE 69 87 37 47 1000.3 - 12.4
27/11:39am 24.8 18.5 24.3 97 0.3 SE 65 107 35 58 1000.4 - 12.4
27/11:34am 23.9 12.5 23.4 97 0.3 SE 89 107 48 58 1000.5 - 12.2
27/11:30am 24.5 12.7 24.0 97 0.3 SE 93 107 50 58 1000.4 - 9.0
27/11:20am 26.1 18.9 25.6 97 0.4 E 74 95 40 51 1000.4 - 6.8
27/11:17am 26.2 19.4 25.7 97 0.4 E 72 83 39 45 1000.6 - 6.8
27/11:14am 25.8 20.9 25.3 97 0.4 SE 61 85 33 46 1000.9 - 6.8
27/11:13am 25.6 21.3 25.1 97 0.3 SE 57 85 31 46 1001.0 - 6.8
27/11:00am 26.0 17.4 25.3 96 0.5 SE 80 111 43 60 1001.4 - 3.4
27/10:52am 25.7 18.2 24.5 93 0.8 SE 72 111 39 60 1001.2 - 1.4
27/10:46am 26.8 19.0 24.6 88 1.5 SE 74 95 40 51 1001.5 - 0.2
27/10:30am 27.1 20.1 24.7 87 1.7 SE 70 95 38 51 1001.8 - 0.2
27/10:11am 27.7 19.8 24.5 83 2.2 SE 74 96 40 52 1001.6 - 0.2
27/10:05am 27.6 20.8 25.0 86 1.8 SE 70 89 38 48 1001.9 - 0.2
27/10:00am 27.3 20.1 25.1 88 1.5 SE 72 87 39 47 1002.0 - 0.2
27/09:57am 27.4 19.8 25.0 87 1.7 SE 74 87 40 47 1002.1 - 0.2
27/09:44am 27.2 19.6 25.0 88 1.5 SSE 74 89 40 48 1002.0 - 0.2
27/09:43am 27.2 19.6 25.0 88 1.5 SSE 74 89 40 48 1002.2 - 0.2
27/09:39am 26.9 19.1 24.7 88 1.5 SSE 74 89 40 48 1002.4 - 0.2
27/09:30am 26.5 19.8 24.9 91 1.1 SSE 69 82 37 44 1002.6 - 0.2
27/09:00am 25.6 18.3 24.9 96 0.5 SSE 72 98 39 53 1002.7 1002.3 56.4
27/08:44am 25.3 16.5 23.7 91 1.1 SSE 76 95 41 51 1002.8 - 51.8
27/08:34am 26.6 19.0 24.4 88 1.5 SSE 72 91 39 49 1002.9 - 51.6
27/08:30am 26.6 18.4 24.6 89 1.4 SSE 76 91 41 49 1002.8 - 51.6
27/08:19am 26.7 18.9 25.3 92 1.0 SSE 76 96 41 52 1002.8 - 51.6
27/08:00am 25.7 17.0 25.0 96 0.5 SSE 80 100 43 54 1002.7 - 51.6
27/07:30am 25.8 18.7 24.6 93 0.8 SSE 70 89 38 48 1002.3 - 48.4
27/07:22am 26.5 18.2 24.5 89 1.4 SSE 76 102 41 55 1002.4 - 47.0
27/07:17am 27.4 19.5 24.5 84 2.0 SSE 74 93 40 50 1001.9 - 47.0
27/07:13am 27.5 19.7 24.7 85 2.0 SSE 74 91 40 49 1002.4 - 47.0
27/07:02am 27.0 18.8 24.6 87 1.7 SSE 76 95 41 51 1002.0 - 47.0
27/07:00am 27.0 19.2 24.6 87 1.7 SSE 74 89 40 48 1002.1 - 47.0
27/06:57am 27.2 19.1 24.8 87 1.7 SSE 76 95 41 51 1002.0 - 47.0
27/06:52am 26.8 18.7 24.8 89 1.4 SSE 76 95 41 51 1002.0 - 47.0
27/06:43am 27.4 20.4 24.8 86 1.8 SSE 70 89 38 48 1001.8 - 46.8
27/06:30am 27.2 20.2 24.5 85 1.9 SSE 69 82 37 44 1001.9 - 46.8
27/06:17am 27.3 20.2 24.2 83 2.1 SSE 69 87 37 47 1002.1 - 46.8
27/06:16am 27.5 20.2 24.3 83 2.2 SSE 70 87 38 47 1002.1 - 46.8
27/06:06am 27.3 20.3 24.4 84 2.0 SSE 69 85 37 46 1002.0 - 46.8
27/06:00am 27.2 20.7 24.6 86 1.8 SSE 67 82 36 44 1002.1 1001.7 46.8
27/05:56am 26.7 20.2 24.7 89 1.4 SSE 67 85 36 46 1002.1 - 46.8
27/05:30am 27.6 19.4 24.0 81 2.5 SSE 74 89 40 48 1002.0 - 46.8
27/05:20am 27.6 19.4 24.6 84 2.1 SSE 76 95 41 51 1002.0 - 46.8
27/05:00am 27.1 20.3 24.7 87 1.7 SSE 69 89 37 48 1001.8 - 46.8
27/04:57am 27.0 20.6 24.8 88 1.5 SSE 67 89 36 48 1001.8 - 46.8
27/04:41am 26.3 20.1 24.5 90 1.2 SSE 65 78 35 42 1002.5 - 46.6
27/04:30am 25.7 18.4 23.9 90 1.2 SE 69 76 37 41 1002.5 - 46.6
27/04:04am 25.8 17.3 22.9 84 2.0 SE 72 83 39 45 1001.9 - 46.4
27/04:03am 25.8 17.3 22.9 84 2.0 SE 72 85 39 46 1001.8 - 46.4
27/04:00am 25.6 17.0 23.3 87 1.6 SE 74 87 40 47 1001.8 - 46.4
27/03:44am 24.9 16.5 23.1 90 1.2 SE 72 93 39 50 1001.3 - 46.4
27/03:43am 25.8 18.7 24.2 91 1.1 SE 69 89 37 48 1001.5 - 46.4
27/03:30am 26.2 20.2 24.2 89 1.4 SE 63 74 34 40 1002.1 - 46.0
27/03:26am 26.2 20.7 25.0 93 0.8 SE 63 74 34 40 1002.1 - 46.0
27/03:24am 26.1 20.3 25.1 94 0.7 SE 65 74 35 40 1002.2 - 46.0
27/03:13am 26.0 20.3 25.3 96 0.5 SE 65 83 35 45 1002.3 - 46.0
27/03:00am 25.7 19.0 25.2 97 0.4 SSE 70 89 38 48 1002.6 1002.2 46.0
27/02:49am 25.3 17.2 24.8 97 0.3 SSE 76 91 41 49 1002.5 - 45.6
27/02:37am 24.2 17.6 23.2 94 0.7 ESE 63 82 34 44 1002.5 - 43.2
27/02:30am 24.9 17.8 23.0 89 1.3 SE 65 82 35 44 1002.6 - 41.0
27/02:27am 26.2 19.8 24.2 89 1.4 SE 65 82 35 44 1002.7 - 40.6
27/02:12am 26.9 19.5 24.7 88 1.5 SE 72 93 39 50 1002.9 - 40.4
27/02:00am 26.8 18.1 25.0 90 1.3 SE 80 91 43 49 1003.0 - 40.4
27/01:53am 26.1 18.7 24.7 92 1.0 SE 72 91 39 49 1002.7 - 40.4
27/01:33am 25.5 19.0 24.6 95 0.6 SSE 67 85 36 46 1003.2 - 40.2
27/01:32am 25.4 19.1 24.4 94 0.7 SSE 65 82 35 44 1003.1 - 40.2
27/01:30am 25.9 19.8 24.7 93 0.8 SSE 65 82 35 44 1003.3 - 39.0
27/01:27am 26.7 21.2 25.1 91 1.1 SSE 63 72 34 39 1003.4 - 38.6
27/01:00am 25.7 18.9 24.7 94 0.7 SSE 69 89 37 48 1004.0 - 38.4
27/12:58am 26.0 20.1 25.0 94 0.7 SSE 65 89 35 48 1003.8 - 38.2
27/12:56am 26.6 21.8 25.6 94 0.7 SSE 61 76 33 41 1004.3 - 38.0
27/12:45am 26.5 21.0 25.6 95 0.6 SSE 65 83 35 45 1004.3 - 38.0
27/12:30am 26.2 20.6 25.5 96 0.5 SSE 65 80 35 43 1004.5 - 37.2
27/12:27am 26.2 22.1 25.5 96 0.5 SE 57 82 31 44 1004.5 - 37.2
27/12:26am 26.1 22.0 25.4 96 0.5 SE 57 82 31 44 1004.5 - 37.2
27/12:11am 26.3 18.3 25.6 96 0.5 SSE 78 87 42 47 1004.4 - 36.4
27/12:05am 26.0 22.8 25.3 96 0.5 SSE 52 70 28 38 1004.7 - 36.2
27/12:00am 25.7 22.9 24.8 95 0.6 SSE 48 82 26 44 1004.7 1004.3 36.0
 
Date/Time
EST
Temp
°C
App
Temp
°C
Dew
Point
°C
Rel
Hum
%
Delta-T
°C
Wind Press
QNH
hPa
Press
MSL
hPa
Rain since
9am
mm
Dir  Spd
km/h
Gust
km/h
Spd
kts
Gust
kts
26/11:58pm 25.9 23.6 25.0 95 0.6 SSE 46 82 25 44 1004.9 - 35.8
26/11:30pm 25.7 19.2 25.2 97 0.3 SSE 69 89 37 48 1004.7 - 35.2
26/11:23pm 25.7 19.6 25.2 97 0.3 SSE 67 89 36 48 1005.1 - 32.8
26/11:15pm 25.8 20.9 25.3 97 0.4 SSE 61 82 33 44 1005.2 - 32.2
26/11:01pm 26.0 20.2 25.7 98 0.2 SSE 67 89 36 48 1005.2 - 32.2
26/11:00pm 25.9 20.0 25.6 98 0.2 SSE 67 83 36 45 1005.2 - 32.2
26/10:57pm 25.8 20.6 25.5 98 0.2 SSE 63 83 34 45 1005.2 - 32.2
26/10:49pm 25.5 21.7 25.0 97 0.3 SE 54 95 29 51 1005.5 - 31.4
26/10:46pm 25.2 17.0 24.7 97 0.3 SSE 76 95 41 51 1005.5 - 31.4
26/10:41pm 25.5 16.8 25.0 97 0.3 SSE 80 91 43 49 1005.3 - 29.4
26/10:30pm 25.6 22.2 25.1 97 0.3 SSE 52 74 28 40 1005.8 - 28.4
26/10:00pm 24.7 20.3 24.0 96 0.5 S 54 76 29 41 1006.1 - 24.8
26/09:56pm 24.7 20.7 24.0 96 0.5 S 52 70 28 38 1006.2 - 24.0
26/09:50pm 24.5 19.5 23.6 95 0.6 S 56 70 30 38 1006.2 - 23.8
26/09:30pm 25.3 21.4 24.3 94 0.7 S 52 70 28 38 1006.4 - 22.6
26/09:16pm 25.1 20.7 24.1 94 0.7 S 54 72 29 39 1006.3 - 22.4
26/09:08pm 25.7 21.8 24.8 95 0.6 S 54 69 29 37 1006.5 - 22.4
26/09:00pm 25.1 20.9 24.4 96 0.5 S 54 72 29 39 1006.4 1006.0 22.4
26/08:30pm 24.8 19.9 23.8 94 0.7 S 56 74 30 40 1006.4 - 20.6
26/08:20pm 24.9 19.9 23.9 94 0.7 S 57 76 31 41 1006.2 - 20.4
26/08:18pm 24.9 19.9 23.7 93 0.8 S 56 76 30 41 1006.2 - 20.2
26/08:01pm 25.3 20.7 24.4 95 0.6 SSE 56 80 30 43 1006.1 - 19.6
26/08:00pm 25.4 21.3 24.5 95 0.6 SSE 54 80 29 43 1006.0 - 19.6
26/07:56pm 25.6 21.6 24.7 95 0.6 S 54 72 29 39 1006.0 - 19.4
26/07:45pm 25.3 21.5 24.4 95 0.6 SSE 52 80 28 43 1005.9 - 19.4
26/07:33pm 25.2 20.5 24.2 94 0.7 S 56 74 30 40 1006.0 - 19.2
26/07:30pm 25.4 20.7 24.5 95 0.6 S 57 74 31 40 1006.0 - 19.2
26/07:14pm 25.5 20.6 24.8 96 0.5 S 59 78 32 42 1005.7 - 19.2
26/07:02pm 25.7 20.9 25.0 96 0.5 SSE 59 72 32 39 1005.5 - 18.8
26/07:00pm 25.8 21.1 25.1 96 0.5 SSE 59 78 32 42 1005.5 - 18.8
26/06:30pm 24.8 20.6 24.3 97 0.3 S 54 74 29 40 1005.2 - 17.4
26/06:17pm 25.1 20.9 24.4 96 0.5 SSE 54 72 29 39 1005.3 - 15.8
26/06:09pm 24.8 19.5 24.1 96 0.5 SSE 59 74 32 40 1005.2 - 15.2
26/06:00pm 25.7 20.8 24.8 95 0.6 S 59 82 32 44 1005.0 1004.6 14.4
26/05:34pm 25.0 20.9 24.5 97 0.3 SSE 54 72 29 39 1004.7 - 14.4
26/05:33pm 24.9 20.7 24.4 97 0.3 SSE 54 69 29 37 1004.9 - 14.4
26/05:30pm 24.8 20.6 24.3 97 0.3 SSE 54 69 29 37 1005.0 - 14.2
26/05:00pm 25.9 21.7 25.2 96 0.5 SSE 57 80 31 43 1004.6 - 10.8
26/04:51pm 24.9 20.2 24.2 96 0.5 SSE 56 74 30 40 1004.6 - 10.6
26/04:48pm 25.1 20.0 24.4 96 0.5 SSE 59 83 32 45 1004.5 - 9.8
26/04:30pm 25.1 18.8 24.4 96 0.5 SSE 65 83 35 45 1004.0 - 9.8
26/04:01pm 24.8 20.9 23.6 93 0.8 S 50 72 27 39 1004.3 - 5.2
26/04:00pm 24.7 20.4 23.5 93 0.8 S 52 72 28 39 1004.3 - 5.0
26/03:56pm 25.6 21.3 24.2 92 1.0 S 54 72 29 39 1004.2 - 4.4
26/03:51pm 25.6 20.9 24.4 93 0.8 SSE 57 72 31 39 1004.2 - 4.4
26/03:46pm 25.2 20.9 24.2 94 0.7 SSE 54 72 29 39 1004.3 - 4.4
26/03:41pm 25.2 21.3 24.2 94 0.7 SSE 52 69 28 37 1004.2 - 4.4
26/03:30pm 25.5 21.3 24.3 93 0.8 S 54 72 29 39 1004.4 - 4.2
26/03:23pm 25.6 20.5 24.4 93 0.8 SSE 59 80 32 43 1004.3 - 4.2
26/03:06pm 25.3 21.2 23.9 92 1.0 SSE 52 74 28 40 1004.5 - 4.2

Other Formats:

Comma delimited format used in spreadsheet applications
http://www.bom.gov.au/fwo/IDQ60801/IDQ60801.94368.axf

JavaScript Object Notation format (JSON) in row-major order
http://www.bom.gov.au/fwo/IDQ60801/IDQ60801.94368.json